createdAt,value
2024-01-24T00:00:16.084Z,96414.00
2024-01-24T00:01:16.172Z,96408.00
2024-01-24T00:02:16.165Z,96398.00
2024-01-24T00:03:16.326Z,96397.00
2024-01-24T00:04:16.321Z,96396.00
2024-01-24T00:05:16.340Z,96396.00
2024-01-24T00:58:14.994Z,96346.00
2024-01-24T00:59:15.956Z,96342.00
2024-01-24T01:00:16.009Z,96339.00
2024-01-24T01:01:16.019Z,96342.00
2024-01-24T01:02:15.986Z,96344.00
2024-01-24T01:03:16.098Z,96345.00
2024-01-24T01:04:16.068Z,96349.00
2024-01-24T01:05:16.058Z,96349.00
2024-01-24T01:06:16.045Z,96348.00
2024-01-24T01:07:16.035Z,96349.00
2024-01-24T01:08:16.045Z,96346.00
2024-01-24T01:09:16.052Z,96341.00
2024-01-24T01:10:16.048Z,96342.00
2024-01-24T01:11:16.049Z,96343.00
2024-01-24T01:12:16.103Z,96344.00
2024-01-24T01:13:16.046Z,96347.00
2024-01-24T01:14:16.056Z,96343.00
2024-01-24T01:15:16.038Z,96344.00
2024-01-24T01:16:16.020Z,96344.00
2024-01-24T01:17:16.030Z,96342.00
2024-01-24T01:18:16.039Z,96338.00
2024-01-24T01:19:16.293Z,96343.00
2024-01-24T01:20:16.085Z,96341.00
2024-01-24T01:21:16.123Z,96338.00
2024-01-24T01:22:16.190Z,96339.00
2024-01-24T01:23:16.128Z,96333.00
2024-01-24T01:24:16.128Z,96332.00
2024-01-24T01:25:16.121Z,96332.00
2024-01-24T01:26:16.141Z,96331.00
2024-01-24T01:27:16.214Z,96326.00
2024-01-24T01:28:16.121Z,96325.00
2024-01-24T01:29:16.124Z,96327.00
2024-01-24T01:30:16.217Z,96322.00
2024-01-24T01:31:16.208Z,96322.00
2024-01-24T01:32:16.267Z,96322.00
2024-01-24T01:33:16.484Z,96323.00
2024-01-24T01:34:16.472Z,96321.00
2024-01-24T01:35:16.434Z,96318.00
2024-01-24T01:36:22.869Z,96314.00
2024-01-24T01:37:16.544Z,96313.00
2024-01-24T01:38:16.491Z,96319.00
2024-01-24T01:39:16.527Z,96321.00
2024-01-24T01:40:16.785Z,96319.00
2024-01-24T01:41:16.506Z,96314.00
2024-01-24T01:42:16.598Z,96308.00
2024-01-24T01:43:16.525Z,96307.00
2024-01-24T01:44:16.553Z,96306.00
2024-01-24T01:45:16.740Z,96308.00
2024-01-24T01:46:16.586Z,96308.00
2024-01-24T01:47:16.646Z,96307.00
2024-01-24T01:48:16.681Z,96308.00
2024-01-24T01:49:16.666Z,96306.00
2024-01-24T01:50:16.571Z,96300.00
2024-01-24T01:51:16.563Z,96292.00
2024-01-24T01:52:16.556Z,96285.00
2024-01-24T01:53:16.563Z,96288.00
2024-01-24T01:54:23.297Z,96286.00
2024-01-24T01:55:16.650Z,96280.00
2024-01-24T01:56:16.568Z,96276.00
2024-01-24T01:57:16.618Z,96276.00
2024-01-24T01:58:16.582Z,96270.00
2024-01-24T01:59:16.578Z,96265.00
2024-01-24T02:00:16.692Z,96265.00
2024-01-24T02:01:16.726Z,96271.00
2024-01-24T02:02:16.633Z,96270.00
2024-01-24T02:03:16.739Z,96266.00
2024-01-24T02:04:16.659Z,96268.00
2024-01-24T02:05:16.679Z,96272.00
2024-01-24T02:06:16.984Z,96265.00
2024-01-24T02:07:16.874Z,96258.00
2024-01-24T02:08:16.661Z,96251.00
2024-01-24T02:09:16.729Z,96247.00
2024-01-24T02:10:16.721Z,96246.00
2024-01-24T02:11:16.694Z,96249.00
2024-01-24T02:12:16.795Z,96247.00
2024-01-24T02:13:16.823Z,96244.00
2024-01-24T02:14:16.854Z,96240.00
2024-01-24T02:15:16.936Z,96237.00
2024-01-24T02:16:20.108Z,96239.00
2024-01-24T02:17:16.970Z,96235.00
2024-01-24T02:18:17.145Z,96231.00
2024-01-24T02:19:17.001Z,96229.00
2024-01-24T02:20:16.991Z,96225.00
2024-01-24T02:21:17.016Z,96229.00
2024-01-24T02:22:17.043Z,96234.00
2024-01-24T02:23:17.082Z,96243.00
2024-01-24T02:24:17.208Z,96241.00
2024-01-24T02:25:17.188Z,96225.00
2024-01-24T02:26:17.261Z,96217.00
2024-01-24T02:27:17.378Z,96210.00
2024-01-24T02:28:17.369Z,96206.00
2024-01-24T02:29:17.433Z,96208.00
2024-01-24T02:30:17.616Z,96217.00
2024-01-24T02:31:17.545Z,96213.00
2024-01-24T02:32:17.605Z,96207.00
2024-01-24T02:33:17.844Z,96199.00
2024-01-24T02:34:17.895Z,96186.00
2024-01-24T02:35:17.771Z,96190.00
2024-01-24T02:36:17.863Z,96202.00
2024-01-24T02:37:17.893Z,96208.00
2024-01-24T02:38:17.953Z,96205.00
2024-01-24T02:39:18.047Z,96200.00
2024-01-24T02:40:18.071Z,96200.00
2024-01-24T02:41:18.782Z,96199.00
2024-01-24T02:42:18.229Z,96200.00
2024-01-24T02:43:18.245Z,96191.00
2024-01-24T02:44:18.795Z,96189.00
2024-01-24T02:45:18.397Z,96196.00
2024-01-24T02:46:18.444Z,96200.00
2024-01-24T02:47:19.287Z,96193.00
2024-01-24T02:48:18.701Z,96191.00
2024-01-24T02:49:18.641Z,96193.00
2024-01-24T02:50:18.666Z,96190.00
2024-01-24T02:51:18.725Z,96181.00
2024-01-24T02:52:18.788Z,96182.00
2024-01-24T02:53:18.834Z,96174.00
2024-01-24T02:54:18.929Z,96179.00
2024-01-24T02:55:18.947Z,96186.00
2024-01-24T02:56:19.012Z,96188.00
2024-01-24T02:57:19.101Z,96187.00
2024-01-24T02:58:19.138Z,96183.00
2024-01-24T02:59:19.199Z,96175.00
2024-01-24T03:00:19.279Z,96175.00
2024-01-24T03:01:19.373Z,96181.00
2024-01-24T03:02:19.398Z,96179.00
2024-01-24T03:03:19.449Z,96178.00
2024-01-24T03:04:19.631Z,96179.00
2024-01-24T03:05:19.554Z,96177.00
2024-01-24T03:06:19.706Z,96170.00
2024-01-24T03:07:19.698Z,96173.00
2024-01-24T03:08:19.721Z,96181.00
2024-01-24T03:09:19.810Z,96178.00
2024-01-24T03:10:19.831Z,96171.00
2024-01-24T03:11:19.899Z,96165.00
2024-01-24T03:12:19.976Z,96156.00
2024-01-24T03:13:20.061Z,96150.00
2024-01-24T03:14:20.071Z,96149.00
2024-01-24T03:15:20.144Z,96153.00
2024-01-24T03:16:20.186Z,96153.00
2024-01-24T03:17:20.242Z,96152.00
2024-01-24T03:18:20.398Z,96148.00
2024-01-24T03:19:20.482Z,96149.00
2024-01-24T03:20:20.416Z,96151.00
2024-01-24T03:21:20.533Z,96140.00
2024-01-24T03:22:20.577Z,96133.00
2024-01-24T03:23:20.599Z,96144.00
2024-01-24T03:24:20.708Z,96148.00
2024-01-24T03:25:20.722Z,96147.00
2024-01-24T03:26:20.784Z,96143.00
2024-01-24T03:27:20.857Z,96137.00
2024-01-24T03:28:20.894Z,96133.00
2024-01-24T03:29:21.817Z,96127.00
2024-01-24T03:30:21.060Z,96123.00
2024-01-24T03:31:21.063Z,96131.00
2024-01-24T03:32:21.126Z,96136.00
2024-01-24T03:33:21.253Z,96146.00
2024-01-24T03:34:21.348Z,96143.00
2024-01-24T03:35:21.297Z,96126.00
2024-01-24T03:36:21.439Z,96121.00
2024-01-24T03:37:21.820Z,96124.00
2024-01-24T03:38:21.497Z,96131.00
2024-01-24T03:39:21.601Z,96136.00
2024-01-24T03:40:21.615Z,96134.00
2024-01-24T03:41:21.651Z,96128.00
2024-01-24T03:42:21.766Z,96125.00
2024-01-24T03:43:21.873Z,96130.00
2024-01-24T03:44:21.833Z,96117.00
2024-01-24T03:45:21.924Z,96111.00
2024-01-24T03:46:21.945Z,96120.00
2024-01-24T03:47:22.005Z,96129.00
2024-01-24T03:48:22.151Z,96143.00
2024-01-24T03:49:22.478Z,96146.00
2024-01-24T03:50:22.179Z,96127.00
2024-01-24T03:51:22.353Z,96113.00
2024-01-24T03:52:22.312Z,96115.00
2024-01-24T03:53:22.369Z,96123.00
2024-01-24T03:54:22.479Z,96128.00
2024-01-24T03:55:22.488Z,96134.00
2024-01-24T03:56:22.565Z,96130.00
2024-01-24T03:57:22.691Z,96128.00
2024-01-24T03:58:22.673Z,96124.00
2024-01-24T03:59:22.745Z,96127.00
2024-01-24T04:00:22.867Z,96127.00
2024-01-24T04:01:22.953Z,96126.00
2024-01-24T04:02:22.925Z,96135.00
2024-01-24T04:03:23.184Z,96141.00
2024-01-24T04:04:23.256Z,96142.00
2024-01-24T04:05:23.086Z,96132.00
2024-01-24T04:06:23.336Z,96118.00
2024-01-24T04:07:23.291Z,96117.00
2024-01-24T04:08:23.284Z,96123.00
2024-01-24T04:09:23.418Z,96126.00
2024-01-24T04:10:23.411Z,96129.00
2024-01-24T04:11:23.611Z,96129.00
2024-01-24T04:12:23.743Z,96118.00
2024-01-24T04:13:23.571Z,96118.00
2024-01-24T04:14:23.646Z,96126.00
2024-01-24T04:15:23.952Z,96122.00
2024-01-24T04:16:23.767Z,96119.00
2024-01-24T04:17:23.835Z,96109.00
2024-01-24T04:18:23.959Z,96114.00
2024-01-24T04:19:24.031Z,96117.00
2024-01-24T04:20:24.006Z,96116.00
2024-01-24T04:21:24.098Z,96111.00
2024-01-24T04:22:24.137Z,96105.00
2024-01-24T04:23:24.187Z,96106.00
2024-01-24T04:24:24.311Z,96099.00
2024-01-24T04:25:24.311Z,96095.00
2024-01-24T04:26:24.413Z,96100.00
2024-01-24T04:27:24.500Z,96099.00
2024-01-24T04:28:24.522Z,96093.00
2024-01-24T04:29:24.579Z,96090.00
2024-01-24T04:30:24.679Z,96102.00
2024-01-24T04:31:24.696Z,96099.00
2024-01-24T04:32:24.805Z,96090.00
2024-01-24T04:33:24.884Z,96089.00
2024-01-24T04:34:25.110Z,96094.00
2024-01-24T04:35:24.954Z,96106.00
2024-01-24T04:36:25.061Z,96108.00
2024-01-24T04:37:25.092Z,96110.00
2024-01-24T04:38:25.161Z,96117.00
2024-01-24T04:39:32.342Z,96125.00
2024-01-24T04:40:33.308Z,96120.00
2024-01-24T04:41:33.312Z,96119.00
2024-01-24T04:42:33.294Z,96123.00
2024-01-24T04:43:33.261Z,96115.00
2024-01-24T04:44:33.245Z,96107.00
2024-01-24T04:45:33.268Z,96110.00
2024-01-24T04:46:33.229Z,96106.00
2024-01-24T04:47:33.217Z,96107.00
2024-01-24T04:48:33.261Z,96102.00
2024-01-24T04:49:43.820Z,96101.00
2024-01-24T04:50:33.291Z,96106.00
2024-01-24T04:51:33.159Z,96113.00
2024-01-24T04:52:33.138Z,96103.00
2024-01-24T04:53:33.117Z,96092.00
2024-01-24T04:54:33.112Z,96094.00
2024-01-24T04:55:33.078Z,96100.00
2024-01-24T04:56:33.066Z,96100.00
2024-01-24T04:57:33.063Z,96089.00
2024-01-24T04:58:33.018Z,96083.00
2024-01-24T04:59:42.454Z,96079.00
2024-01-24T05:00:33.080Z,96082.00
2024-01-24T05:01:33.036Z,96086.00
2024-01-24T05:02:32.965Z,96089.00
2024-01-24T05:03:32.985Z,96084.00
2024-01-24T05:04:32.957Z,96097.00
2024-01-24T05:05:32.967Z,96102.00
2024-01-24T05:06:33.038Z,96090.00
2024-01-24T05:07:32.894Z,96096.00
2024-01-24T05:08:32.872Z,96108.00
2024-01-24T05:09:32.955Z,96097.00
2024-01-24T05:10:32.838Z,96074.00
2024-01-24T05:11:32.824Z,96088.00
2024-01-24T05:12:32.879Z,96102.00
2024-01-24T05:13:32.821Z,96099.00
2024-01-24T05:14:32.775Z,96102.00
2024-01-24T05:15:32.763Z,96087.00
2024-01-24T05:16:32.729Z,96082.00
2024-01-24T05:17:32.735Z,96101.00
2024-01-24T05:18:32.939Z,96106.00
2024-01-24T05:19:32.840Z,96097.00
2024-01-24T05:20:32.686Z,96103.00
2024-01-24T05:21:32.721Z,96103.00
2024-01-24T05:22:32.661Z,96100.00
2024-01-24T05:23:32.703Z,96103.00
2024-01-24T05:24:32.764Z,96106.00
2024-01-24T05:25:32.778Z,96108.00
2024-01-24T05:26:32.802Z,96114.00
2024-01-24T05:27:32.909Z,96105.00
2024-01-24T05:28:32.925Z,96098.00
2024-01-24T05:29:32.976Z,96100.00
2024-01-24T05:30:35.838Z,96107.00
2024-01-24T05:31:33.045Z,96116.00
2024-01-24T05:32:33.045Z,96107.00
2024-01-24T05:33:33.109Z,96095.00
2024-01-24T05:34:33.029Z,96098.00
2024-01-24T05:35:31.963Z,96101.00
2024-01-24T05:36:32.982Z,96100.00
2024-01-24T05:37:32.943Z,96095.00
2024-01-24T05:38:32.924Z,96093.00
2024-01-24T05:39:32.952Z,96094.00
2024-01-24T05:40:32.960Z,96094.00
2024-01-24T05:41:32.999Z,96097.00
2024-01-24T05:42:33.057Z,96101.00
2024-01-24T05:43:33.088Z,96104.00
2024-01-24T05:44:33.151Z,96093.00
2024-01-24T05:45:33.322Z,96091.00
2024-01-24T05:46:33.296Z,96084.00
2024-01-24T05:47:33.405Z,96095.00
2024-01-24T05:48:33.448Z,96100.00
2024-01-24T05:49:33.478Z,96093.00
2024-01-24T05:50:33.458Z,96099.00
2024-01-24T05:51:33.563Z,96104.00
2024-01-24T05:52:33.567Z,96095.00
2024-01-24T05:53:33.640Z,96107.00
2024-01-24T05:54:33.725Z,96108.00
2024-01-24T05:55:33.758Z,96096.00
2024-01-24T05:56:33.799Z,96079.00
2024-01-24T05:57:33.880Z,96077.00
2024-01-24T05:58:33.910Z,96085.00
2024-01-24T05:59:33.996Z,96079.00
2024-01-24T06:00:34.180Z,96079.00
2024-01-24T06:01:34.226Z,96090.00
2024-01-24T06:02:34.093Z,96092.00
2024-01-24T06:03:34.208Z,96083.00
2024-01-24T06:04:34.361Z,96071.00
2024-01-24T06:05:34.384Z,96069.00
2024-01-24T06:06:34.376Z,96069.00
2024-01-24T06:07:34.458Z,96059.00
2024-01-24T06:08:34.426Z,96055.00
2024-01-24T06:09:34.525Z,96063.00
2024-01-24T06:10:34.550Z,96069.00
2024-01-24T06:11:34.642Z,96072.00
2024-01-24T06:12:34.878Z,96051.00
2024-01-24T06:13:34.717Z,96054.00
2024-01-24T06:14:34.759Z,96076.00
2024-01-24T06:15:34.842Z,96080.00
2024-01-24T06:16:34.845Z,96076.00
2024-01-24T06:17:35.636Z,96084.00
2024-01-24T06:18:34.961Z,96086.00
2024-01-24T06:19:35.022Z,96081.00
2024-01-24T06:20:34.980Z,96078.00
2024-01-24T06:21:35.024Z,96074.00
2024-01-24T06:22:35.478Z,96079.00
2024-01-24T06:23:35.052Z,96089.00
2024-01-24T06:24:35.143Z,96089.00
2024-01-24T06:25:35.147Z,96079.00
2024-01-24T06:26:35.194Z,96080.00
2024-01-24T06:27:35.508Z,96089.00
2024-01-24T06:28:35.317Z,96088.00
2024-01-24T06:30:15.913Z,96090.00
2024-01-24T06:30:35.391Z,96091.00
2024-01-24T06:31:35.409Z,96085.00
2024-01-24T06:32:35.523Z,96083.00
2024-01-24T06:33:35.417Z,96085.00
2024-01-24T06:34:35.372Z,96078.00
2024-01-24T06:35:35.266Z,96075.00
2024-01-24T06:36:35.317Z,96073.00
2024-01-24T06:37:35.237Z,96077.00
2024-01-24T06:38:35.488Z,96077.00
2024-01-24T06:39:35.253Z,96081.00
2024-01-24T06:40:35.196Z,96074.00
2024-01-24T06:41:35.156Z,96076.00
2024-01-24T06:42:35.509Z,96080.00
2024-01-24T06:43:35.128Z,96081.00
2024-01-24T06:44:35.112Z,96077.00
2024-01-24T06:45:35.177Z,96066.00
2024-01-24T06:46:35.072Z,96057.00
2024-01-24T06:47:35.559Z,96037.00
2024-01-24T06:48:35.592Z,96048.00
2024-01-24T06:49:35.613Z,96054.00
2024-01-24T06:50:35.512Z,96060.00
2024-01-24T06:51:35.058Z,96055.00
2024-01-24T06:52:35.016Z,96062.00
2024-01-24T06:53:34.999Z,96059.00
2024-01-24T06:54:35.074Z,96043.00
2024-01-24T06:55:34.943Z,96047.00
2024-01-24T06:56:34.922Z,96055.00
2024-01-24T06:57:35.910Z,96062.00
2024-01-24T06:58:34.993Z,96054.00
2024-01-24T06:59:35.549Z,96055.00
2024-01-24T07:00:35.053Z,96063.00
2024-01-24T07:01:35.172Z,96064.00
2024-01-24T07:02:35.979Z,96052.00
2024-01-24T07:03:34.880Z,96037.00
2024-01-24T07:04:35.202Z,96038.00
2024-01-24T07:05:35.066Z,96037.00
2024-01-24T07:06:34.786Z,96032.00
2024-01-24T07:07:35.000Z,96034.00
2024-01-24T07:08:34.727Z,96035.00
2024-01-24T07:09:34.774Z,96036.00
2024-01-24T07:10:36.019Z,96045.00
2024-01-24T07:11:34.864Z,96046.00
2024-01-24T07:12:34.905Z,96049.00
2024-01-24T07:13:34.966Z,96043.00
2024-01-24T07:14:35.634Z,96045.00
2024-01-24T07:15:36.005Z,96050.00
2024-01-24T07:16:38.242Z,96053.00
2024-01-24T07:17:38.282Z,96061.00
2024-01-24T07:18:35.093Z,96069.00
2024-01-24T07:19:35.088Z,96061.00
2024-01-24T07:20:34.909Z,96053.00
2024-01-24T07:21:34.968Z,96051.00
2024-01-24T07:22:35.039Z,96048.00
2024-01-24T07:23:34.807Z,96048.00
2024-01-24T07:24:34.893Z,96045.00
2024-01-24T07:25:34.755Z,96043.00
2024-01-24T07:26:34.730Z,96035.00
2024-01-24T07:27:36.005Z,96023.00
2024-01-24T07:28:34.720Z,96024.00
2024-01-24T07:29:34.724Z,96024.00
2024-01-24T07:30:34.909Z,96025.00
2024-01-24T07:31:34.732Z,96024.00
2024-01-24T07:32:34.776Z,96026.00
2024-01-24T07:33:34.876Z,96033.00
2024-01-24T07:34:34.966Z,96034.00
2024-01-24T07:35:35.013Z,96025.00
2024-01-24T07:36:34.899Z,96034.00
2024-01-24T07:37:34.922Z,96041.00
2024-01-24T07:38:35.013Z,96034.00
2024-01-24T07:39:34.950Z,96038.00
2024-01-24T07:40:34.951Z,96039.00
2024-01-24T07:41:34.965Z,96034.00
2024-01-24T07:42:35.778Z,96025.00
2024-01-24T07:43:35.001Z,96015.00
2024-01-24T07:44:35.005Z,96012.00
2024-01-24T07:45:35.156Z,96018.00
2024-01-24T07:46:35.035Z,96019.00
2024-01-24T07:47:35.561Z,96035.00
2024-01-24T07:48:35.122Z,96047.00
2024-01-24T07:49:38.438Z,96037.00
2024-01-24T07:50:35.025Z,96030.00
2024-01-24T07:51:34.988Z,96031.00
2024-01-24T07:52:40.755Z,96038.00
2024-01-24T07:53:35.940Z,96041.00
2024-01-24T07:54:34.951Z,96036.00
2024-01-24T07:55:41.691Z,96028.00
2024-01-24T07:56:34.872Z,96022.00
2024-01-24T07:57:34.907Z,96017.00
2024-01-24T07:58:34.841Z,96016.00
2024-01-24T07:59:34.783Z,96017.00
2024-01-24T08:00:34.875Z,96024.00
2024-01-24T08:01:35.131Z,96032.00
2024-01-24T08:02:34.744Z,96033.00
2024-01-24T08:03:34.837Z,96031.00
2024-01-24T08:04:34.733Z,96034.00
2024-01-24T08:05:34.681Z,96040.00
2024-01-24T08:06:37.948Z,96044.00
2024-01-24T08:07:34.682Z,96033.00
2024-01-24T08:08:34.623Z,96025.00
2024-01-24T08:09:34.647Z,96022.00
2024-01-24T08:10:34.563Z,96025.00
2024-01-24T08:11:34.541Z,96036.00
2024-01-24T08:12:35.035Z,96036.00
2024-01-24T08:13:34.512Z,96031.00
2024-01-24T08:14:35.974Z,96022.00
2024-01-24T08:15:34.534Z,96018.00
2024-01-24T08:16:35.386Z,96022.00
2024-01-24T08:17:34.505Z,96023.00
2024-01-24T08:18:34.635Z,96024.00
2024-01-24T08:19:34.613Z,96016.00
2024-01-24T08:20:34.539Z,96010.00
2024-01-24T08:21:34.484Z,96004.00
2024-01-24T08:22:34.549Z,96001.00
2024-01-24T08:23:42.619Z,96004.00
2024-01-24T08:24:35.505Z,96007.00
2024-01-24T08:25:34.499Z,96010.00
2024-01-24T08:26:34.480Z,96005.00
2024-01-24T08:27:34.618Z,95996.00
2024-01-24T08:28:34.428Z,95988.00
2024-01-24T08:29:37.629Z,95989.00
2024-01-24T08:30:34.445Z,95990.00
2024-01-24T08:31:34.375Z,96005.00
2024-01-24T08:32:34.660Z,96018.00
2024-01-24T08:33:34.510Z,96014.00
2024-01-24T08:34:34.656Z,96004.00
2024-01-24T08:35:34.287Z,96000.00
2024-01-24T08:36:34.331Z,96000.00
2024-01-24T08:37:34.540Z,96008.00
2024-01-24T08:38:34.224Z,96010.00
2024-01-24T08:39:34.817Z,95999.00
2024-01-24T08:40:34.205Z,95996.00
2024-01-24T08:41:34.272Z,96000.00
2024-01-24T08:42:34.289Z,96000.00
2024-01-24T08:43:34.310Z,96003.00
2024-01-24T08:44:34.609Z,95992.00
2024-01-24T08:45:34.386Z,95989.00
2024-01-24T08:46:34.386Z,95990.00
2024-01-24T08:47:35.439Z,95989.00
2024-01-24T08:48:34.618Z,95990.00
2024-01-24T08:49:34.594Z,95981.00
2024-01-24T08:50:34.475Z,95980.00
2024-01-24T08:51:37.739Z,95980.00
2024-01-24T08:52:41.879Z,95978.00
2024-01-24T08:53:34.458Z,95983.00
2024-01-24T08:54:36.450Z,95986.00
2024-01-24T08:55:34.545Z,95983.00
2024-01-24T08:56:34.412Z,95984.00
2024-01-24T08:57:34.420Z,95987.00
2024-01-24T08:58:34.366Z,95983.00
2024-01-24T08:59:34.553Z,95969.00
2024-01-24T09:00:34.480Z,95971.00
2024-01-24T09:01:41.799Z,95981.00
2024-01-24T09:02:34.557Z,95989.00
2024-01-24T09:03:34.417Z,95982.00
2024-01-24T09:04:34.385Z,95968.00
2024-01-24T09:05:34.301Z,95966.00
2024-01-24T09:06:34.363Z,95972.00
2024-01-24T09:07:34.591Z,95978.00
2024-01-24T09:08:34.226Z,95993.00
2024-01-24T09:09:34.386Z,95999.00
2024-01-24T09:10:34.218Z,95994.00
2024-01-24T09:11:38.425Z,95986.00
2024-01-24T09:12:34.188Z,95988.00
2024-01-24T09:13:34.201Z,96001.00
2024-01-24T09:14:34.199Z,96003.00
2024-01-24T09:15:35.016Z,95996.00
2024-01-24T09:16:34.200Z,95991.00
2024-01-24T09:17:35.083Z,95992.00
2024-01-24T09:18:34.894Z,95992.00
2024-01-24T09:19:34.239Z,95999.00
2024-01-24T09:20:34.191Z,95999.00
2024-01-24T09:21:34.589Z,95991.00
2024-01-24T09:22:34.208Z,95976.00
2024-01-24T09:23:34.226Z,95972.00
2024-01-24T09:24:34.318Z,95989.00
2024-01-24T09:25:34.556Z,95984.00
2024-01-24T09:26:34.389Z,95967.00
2024-01-24T09:27:34.594Z,95964.00
2024-01-24T09:28:34.470Z,95961.00
2024-01-24T09:29:33.471Z,95965.00
2024-01-24T09:30:34.489Z,95970.00
2024-01-24T09:31:34.501Z,95968.00
2024-01-24T09:32:34.430Z,95978.00
2024-01-24T09:33:36.169Z,95983.00
2024-01-24T09:34:34.651Z,95977.00
2024-01-24T09:35:34.637Z,95974.00
2024-01-24T09:36:34.320Z,95969.00
2024-01-24T09:37:34.569Z,95964.00
2024-01-24T09:38:34.581Z,95961.00
2024-01-24T09:39:34.587Z,95964.00
2024-01-24T09:40:34.637Z,95969.00
2024-01-24T09:41:34.282Z,95964.00
2024-01-24T09:42:34.260Z,95966.00
2024-01-24T09:43:34.243Z,95959.00
2024-01-24T09:44:34.367Z,95947.00
2024-01-24T09:45:34.709Z,95954.00
2024-01-24T09:46:34.228Z,95959.00
2024-01-24T09:47:34.622Z,95963.00
2024-01-24T09:48:34.268Z,95972.00
2024-01-24T09:49:35.448Z,95973.00
2024-01-24T09:50:34.148Z,95970.00
2024-01-24T09:51:34.163Z,95978.00
2024-01-24T09:52:34.579Z,95983.00
2024-01-24T09:53:34.181Z,95979.00
2024-01-24T09:54:34.361Z,95975.00
2024-01-24T09:55:34.223Z,95969.00
2024-01-24T09:56:34.344Z,95978.00
2024-01-24T09:57:34.703Z,95985.00
2024-01-24T09:58:34.265Z,95977.00
2024-01-24T09:59:34.266Z,95961.00
2024-01-24T10:00:34.282Z,95963.00
2024-01-24T10:01:34.407Z,95968.00
2024-01-24T10:02:34.571Z,95971.00
2024-01-24T10:03:37.674Z,95971.00
2024-01-24T10:04:34.657Z,95976.00
2024-01-24T10:05:34.392Z,95977.00
2024-01-24T10:07:34.656Z,95971.00
2024-01-24T10:08:34.246Z,95974.00
2024-01-24T10:09:34.262Z,95980.00
2024-01-24T10:10:34.216Z,95972.00
2024-01-24T10:11:34.180Z,95969.00
2024-01-24T10:12:34.252Z,95961.00
2024-01-24T10:13:34.173Z,95959.00
2024-01-24T10:14:34.165Z,95959.00
2024-01-24T10:15:34.229Z,95960.00
2024-01-24T10:16:34.162Z,95960.00
2024-01-24T10:17:34.190Z,95950.00
2024-01-24T10:18:34.256Z,95943.00
2024-01-24T10:19:34.249Z,95936.00
2024-01-24T10:20:34.232Z,95937.00
2024-01-24T10:21:34.435Z,95944.00
2024-01-24T10:22:34.747Z,95942.00
2024-01-24T10:23:34.400Z,95943.00
2024-01-24T10:24:34.490Z,95940.00
2024-01-24T10:25:34.525Z,95932.00
2024-01-24T10:26:34.552Z,95932.00
2024-01-24T10:27:38.291Z,95922.00
2024-01-24T10:28:34.567Z,95910.00
2024-01-24T10:29:34.570Z,95900.00
2024-01-24T10:30:34.692Z,95908.00
2024-01-24T10:31:37.755Z,95902.00
2024-01-24T10:32:34.625Z,95896.00
2024-01-24T10:33:34.672Z,95902.00
2024-01-24T10:34:34.654Z,95904.00
2024-01-24T10:35:34.588Z,95906.00
2024-01-24T10:36:35.105Z,95908.00
2024-01-24T10:37:35.403Z,95908.00
2024-01-24T10:38:34.583Z,95896.00
2024-01-24T10:39:42.019Z,95892.00
2024-01-24T10:40:34.560Z,95894.00
2024-01-24T10:41:34.583Z,95909.00
2024-01-24T10:42:34.621Z,95907.00
2024-01-24T10:43:34.610Z,95898.00
2024-01-24T10:44:34.660Z,95897.00
2024-01-24T10:45:34.623Z,95898.00
2024-01-24T10:46:34.681Z,95901.00
2024-01-24T10:47:34.631Z,95888.00
2024-01-24T10:48:34.765Z,95875.00
2024-01-24T10:49:34.728Z,95881.00
2024-01-24T10:50:34.674Z,95883.00
2024-01-24T10:51:35.029Z,95875.00
2024-01-24T10:52:35.106Z,95872.00
2024-01-24T10:53:34.742Z,95880.00
2024-01-24T10:54:34.772Z,95896.00
2024-01-24T10:55:34.896Z,95886.00
2024-01-24T10:56:34.774Z,95862.00
2024-01-24T10:57:34.856Z,95844.00
2024-01-24T10:58:35.094Z,95858.00
2024-01-24T10:59:34.866Z,95867.00
2024-01-24T11:00:34.952Z,95861.00
2024-01-24T11:01:34.925Z,95848.00
2024-01-24T11:02:34.972Z,95843.00
2024-01-24T11:03:35.229Z,95846.00
2024-01-24T11:04:35.092Z,95844.00
2024-01-24T11:05:35.154Z,95833.00
2024-01-24T11:06:35.263Z,95826.00
2024-01-24T11:07:35.156Z,95828.00
2024-01-24T11:08:42.962Z,95835.00
2024-01-24T11:09:35.261Z,95841.00
2024-01-24T11:10:35.188Z,95847.00
2024-01-24T11:11:35.162Z,95831.00
2024-01-24T11:12:35.178Z,95811.00
2024-01-24T11:13:35.630Z,95807.00
2024-01-24T11:14:35.401Z,95815.00
2024-01-24T11:15:35.120Z,95812.00
2024-01-24T11:16:35.076Z,95805.00
2024-01-24T11:17:35.131Z,95807.00
2024-01-24T11:18:35.258Z,95807.00
2024-01-24T11:19:35.337Z,95799.00
2024-01-24T11:20:34.992Z,95799.00
2024-01-24T11:21:36.740Z,95814.00
2024-01-24T11:22:35.219Z,95818.00
2024-01-24T11:23:35.104Z,95811.00
2024-01-24T11:24:35.013Z,95802.00
2024-01-24T11:25:34.895Z,95792.00
2024-01-24T11:26:34.851Z,95805.00
2024-01-24T11:28:34.107Z,95811.00
2024-01-24T11:29:34.828Z,95810.00
2024-01-24T11:30:34.806Z,95789.00
2024-01-24T11:31:34.791Z,95799.00
2024-01-24T11:32:34.745Z,95799.00
2024-01-24T11:33:35.243Z,95783.00
2024-01-24T11:34:34.752Z,95770.00
2024-01-24T11:35:37.843Z,95785.00
2024-01-24T11:36:34.597Z,95795.00
2024-01-24T11:37:34.600Z,95786.00
2024-01-24T11:38:37.845Z,95776.00
2024-01-24T11:39:34.607Z,95782.00
2024-01-24T11:40:34.564Z,95785.00
2024-01-24T11:41:34.615Z,95789.00
2024-01-24T11:42:34.514Z,95771.00
2024-01-24T11:43:37.553Z,95765.00
2024-01-24T11:44:34.447Z,95768.00
2024-01-24T11:45:34.459Z,95772.00
2024-01-24T11:46:34.757Z,95764.00
2024-01-24T11:47:34.426Z,95761.00
2024-01-24T11:48:34.589Z,95761.00
2024-01-24T11:49:34.459Z,95768.00
2024-01-24T11:50:34.402Z,95774.00
2024-01-24T11:51:34.401Z,95767.00
2024-01-24T11:52:34.618Z,95784.00
2024-01-24T11:53:34.374Z,95782.00
2024-01-24T11:54:34.346Z,95785.00
2024-01-24T11:55:34.318Z,95781.00
2024-01-24T11:56:34.369Z,95763.00
2024-01-24T11:57:34.671Z,95773.00
2024-01-24T11:58:34.290Z,95778.00
2024-01-24T11:59:34.289Z,95783.00
2024-01-24T12:00:34.287Z,95779.00
2024-01-24T12:01:34.688Z,95768.00
2024-01-24T12:02:34.621Z,95777.00
2024-01-24T12:03:34.319Z,95779.00
2024-01-24T12:04:34.298Z,95750.00
2024-01-24T12:05:34.210Z,95740.00
2024-01-24T12:06:34.335Z,95753.00
2024-01-24T12:07:34.681Z,95759.00
2024-01-24T12:08:34.162Z,95751.00
2024-01-24T12:09:34.182Z,95748.00
2024-01-24T12:10:34.129Z,95747.00
2024-01-24T12:11:34.642Z,95746.00
2024-01-24T12:12:34.151Z,95744.00
2024-01-24T12:13:34.067Z,95746.00
2024-01-24T12:14:34.043Z,95739.00
2024-01-24T12:15:34.038Z,95727.00
2024-01-24T12:16:34.013Z,95719.00
2024-01-24T12:17:34.140Z,95728.00
2024-01-24T12:18:34.376Z,95731.00
2024-01-24T12:19:34.226Z,95735.00
2024-01-24T12:20:34.177Z,95738.00
2024-01-24T12:21:34.264Z,95727.00
2024-01-24T12:22:34.630Z,95712.00
2024-01-24T12:23:34.636Z,95713.00
2024-01-24T12:24:34.331Z,95726.00
2024-01-24T12:25:34.398Z,95726.00
2024-01-24T12:26:34.363Z,95713.00
2024-01-24T12:27:34.351Z,95707.00
2024-01-24T12:28:34.371Z,95715.00
2024-01-24T12:29:34.406Z,95713.00
2024-01-24T12:30:34.562Z,95708.00
2024-01-24T12:31:34.538Z,95701.00
2024-01-24T12:32:34.609Z,95707.00
2024-01-24T12:33:36.468Z,95704.00
2024-01-24T12:34:34.733Z,95704.00
2024-01-24T12:35:34.583Z,95707.00
2024-01-24T12:36:34.590Z,95716.00
2024-01-24T12:37:34.642Z,95724.00
2024-01-24T12:38:34.535Z,95724.00